sensor_id;sensor_type;location;lat;lon;timestamp;temperature;humidity
67165;SHT31;54093;50.014;19.984;2023-04-25T00:00:14;12.47;80.10
67165;SHT31;54093;50.014;19.984;2023-04-25T00:09:54;12.47;79.74
67165;SHT31;54093;50.014;19.984;2023-04-25T00:19:15;12.38;77.64
67165;SHT31;54093;50.014;19.984;2023-04-25T00:28:37;12.24;77.26
67165;SHT31;54093;50.014;19.984;2023-04-25T00:37:58;12.17;77.20
67165;SHT31;54093;50.014;19.984;2023-04-25T00:47:19;12.07;77.09
67165;SHT31;54093;50.014;19.984;2023-04-25T00:56:40;11.96;77.18
67165;SHT31;54093;50.014;19.984;2023-04-25T01:06:02;11.85;77.93
67165;SHT31;54093;50.014;19.984;2023-04-25T01:15:23;11.75;78.23
67165;SHT31;54093;50.014;19.984;2023-04-25T01:24:44;11.66;78.39
67165;SHT31;54093;50.014;19.984;2023-04-25T01:34:05;11.63;79.05
67165;SHT31;54093;50.014;19.984;2023-04-25T01:43:26;11.58;78.88
67165;SHT31;54093;50.014;19.984;2023-04-25T01:52:47;11.48;79.01
67165;SHT31;54093;50.014;19.984;2023-04-25T02:02:08;11.45;79.31
67165;SHT31;54093;50.014;19.984;2023-04-25T02:11:29;11.31;80.06
67165;SHT31;54093;50.014;19.984;2023-04-25T02:20:50;11.38;79.54
67165;SHT31;54093;50.014;19.984;2023-04-25T02:30:11;11.38;79.19
67165;SHT31;54093;50.014;19.984;2023-04-25T02:39:32;11.31;79.45
67165;SHT31;54093;50.014;19.984;2023-04-25T02:48:53;11.24;79.56
67165;SHT31;54093;50.014;19.984;2023-04-25T02:58:14;11.22;79.18
67165;SHT31;54093;50.014;19.984;2023-04-25T03:07:36;11.24;79.16
67165;SHT31;54093;50.014;19.984;2023-04-25T03:16:56;11.24;79.52
67165;SHT31;54093;50.014;19.984;2023-04-25T03:26:17;11.15;80.36
67165;SHT31;54093;50.014;19.984;2023-04-25T03:35:38;11.11;80.97
67165;SHT31;54093;50.014;19.984;2023-04-25T03:45:00;11.14;80.23
67165;SHT31;54093;50.014;19.984;2023-04-25T03:54:21;11.08;79.78
67165;SHT31;54093;50.014;19.984;2023-04-25T04:03:42;11.04;79.36
67165;SHT31;54093;50.014;19.984;2023-04-25T04:13:03;10.87;79.39
67165;SHT31;54093;50.014;19.984;2023-04-25T04:22:24;10.72;79.97
67165;SHT31;54093;50.014;19.984;2023-04-25T04:31:45;10.64;80.15
67165;SHT31;54093;50.014;19.984;2023-04-25T04:41:06;10.57;80.14
67165;SHT31;54093;50.014;19.984;2023-04-25T04:50:27;10.52;79.52
67165;SHT31;54093;50.014;19.984;2023-04-25T04:59:48;10.42;80.62
67165;SHT31;54093;50.014;19.984;2023-04-25T05:09:10;10.43;80.44
67165;SHT31;54093;50.014;19.984;2023-04-25T05:18:31;10.46;80.53
67165;SHT31;54093;50.014;19.984;2023-04-25T05:27:52;10.42;80.01
67165;SHT31;54093;50.014;19.984;2023-04-25T05:37:13;10.35;79.47
67165;SHT31;54093;50.014;19.984;2023-04-25T05:46:34;10.32;78.56
67165;SHT31;54093;50.014;19.984;2023-04-25T05:55:55;10.29;78.17
67165;SHT31;54093;50.014;19.984;2023-04-25T06:05:16;10.05;77.44
67165;SHT31;54093;50.014;19.984;2023-04-25T06:14:38;9.95;77.13
67165;SHT31;54093;50.014;19.984;2023-04-25T06:23:59;9.97;77.22
67165;SHT31;54093;50.014;19.984;2023-04-25T06:33:20;9.99;77.34
67165;SHT31;54093;50.014;19.984;2023-04-25T06:42:42;9.99;77.60
67165;SHT31;54093;50.014;19.984;2023-04-25T06:52:03;10.02;78.17
67165;SHT31;54093;50.014;19.984;2023-04-25T07:01:24;10.16;76.88
67165;SHT31;54093;50.014;19.984;2023-04-25T07:10:45;10.19;77.09
67165;SHT31;54093;50.014;19.984;2023-04-25T07:20:07;10.18;76.33
67165;SHT31;54093;50.014;19.984;2023-04-25T07:29:29;10.02;76.77
67165;SHT31;54093;50.014;19.984;2023-04-25T07:38:50;10.15;77.53
67165;SHT31;54093;50.014;19.984;2023-04-25T07:48:16;10.26;75.79
67165;SHT31;54093;50.014;19.984;2023-04-25T07:57:38;10.32;74.32
67165;SHT31;54093;50.014;19.984;2023-04-25T08:06:59;10.26;74.53
67165;SHT31;54093;50.014;19.984;2023-04-25T08:16:20;10.41;75.08
67165;SHT31;54093;50.014;19.984;2023-04-25T08:25:41;10.50;74.99
67165;SHT31;54093;50.014;19.984;2023-04-25T08:35:02;10.41;75.19
67165;SHT31;54093;50.014;19.984;2023-04-25T08:44:23;10.32;74.43
67165;SHT31;54093;50.014;19.984;2023-04-25T08:53:46;10.26;74.52
67165;SHT31;54093;50.014;19.984;2023-04-25T09:03:10;10.24;74.72
67165;SHT31;54093;50.014;19.984;2023-04-25T09:12:31;10.29;75.24
67165;SHT31;54093;50.014;19.984;2023-04-25T09:21:57;10.42;75.69
67165;SHT31;54093;50.014;19.984;2023-04-25T09:31:22;10.49;74.04
67165;SHT31;54093;50.014;19.984;2023-04-25T09:40:46;10.42;73.67
67165;SHT31;54093;50.014;19.984;2023-04-25T09:50:16;10.36;73.58
67165;SHT31;54093;50.014;19.984;2023-04-25T09:59:39;10.43;74.60
67165;SHT31;54093;50.014;19.984;2023-04-25T10:09:04;10.56;73.35
67165;SHT31;54093;50.014;19.984;2023-04-25T10:18:29;10.60;73.81
67165;SHT31;54093;50.014;19.984;2023-04-25T10:27:51;10.63;72.64
67165;SHT31;54093;50.014;19.984;2023-04-25T10:37:13;10.73;70.20
67165;SHT31;54093;50.014;19.984;2023-04-25T10:46:34;10.90;71.09
67165;SHT31;54093;50.014;19.984;2023-04-25T10:55:56;11.13;67.31
67165;SHT31;54093;50.014;19.984;2023-04-25T11:05:32;11.15;66.91
67165;SHT31;54093;50.014;19.984;2023-04-25T11:15:04;11.30;67.30
67165;SHT31;54093;50.014;19.984;2023-04-25T11:33:48;11.36;66.19
67165;SHT31;54093;50.014;19.984;2023-04-25T11:43:09;11.21;66.28
67165;SHT31;54093;50.014;19.984;2023-04-25T11:52:42;11.11;67.46
67165;SHT31;54093;50.014;19.984;2023-04-25T12:02:03;11.10;66.82
67165;SHT31;54093;50.014;19.984;2023-04-25T12:11:24;11.01;66.07
67165;SHT31;54093;50.014;19.984;2023-04-25T12:20:45;11.01;67.19
67165;SHT31;54093;50.014;19.984;2023-04-25T12:30:08;11.04;67.24
67165;SHT31;54093;50.014;19.984;2023-04-25T12:39:29;10.96;67.20
67165;SHT31;54093;50.014;19.984;2023-04-25T12:48:50;10.79;69.14
67165;SHT31;54093;50.014;19.984;2023-04-25T12:58:11;10.72;67.80
67165;SHT31;54093;50.014;19.984;2023-04-25T13:07:34;10.72;70.08
67165;SHT31;54093;50.014;19.984;2023-04-25T13:16:55;10.73;70.86
67165;SHT31;54093;50.014;19.984;2023-04-25T13:26:16;10.79;69.09
67165;SHT31;54093;50.014;19.984;2023-04-25T13:35:37;10.81;69.26
67165;SHT31;54093;50.014;19.984;2023-04-25T13:44:58;10.85;68.97
67165;SHT31;54093;50.014;19.984;2023-04-25T13:54:19;10.89;70.28
67165;SHT31;54093;50.014;19.984;2023-04-25T14:03:40;10.93;67.26
67165;SHT31;54093;50.014;19.984;2023-04-25T14:13:02;11.00;66.83
67165;SHT31;54093;50.014;19.984;2023-04-25T14:22:23;11.07;67.86
67165;SHT31;54093;50.014;19.984;2023-04-25T14:31:44;11.10;65.06
67165;SHT31;54093;50.014;19.984;2023-04-25T14:41:05;10.93;68.42
67165;SHT31;54093;50.014;19.984;2023-04-25T14:50:26;10.76;67.86
67165;SHT31;54093;50.014;19.984;2023-04-25T14:59:47;10.67;60.08
67165;SHT31;54093;50.014;19.984;2023-04-25T15:09:08;10.67;63.62
67165;SHT31;54093;50.014;19.984;2023-04-25T15:18:31;10.66;65.51
67165;SHT31;54093;50.014;19.984;2023-04-25T15:27:52;10.67;65.48
67165;SHT31;54093;50.014;19.984;2023-04-25T15:37:15;10.77;66.66
67165;SHT31;54093;50.014;19.984;2023-04-25T15:46:36;10.81;65.45
67165;SHT31;54093;50.014;19.984;2023-04-25T15:55:57;10.96;67.53
67165;SHT31;54093;50.014;19.984;2023-04-25T16:05:22;11.07;66.55
67165;SHT31;54093;50.014;19.984;2023-04-25T16:14:45;11.03;62.94
67165;SHT31;54093;50.014;19.984;2023-04-25T16:24:07;11.01;64.82
67165;SHT31;54093;50.014;19.984;2023-04-25T16:33:28;10.99;63.44
67165;SHT31;54093;50.014;19.984;2023-04-25T16:42:49;10.97;65.04
67165;SHT31;54093;50.014;19.984;2023-04-25T16:52:11;10.93;65.70
67165;SHT31;54093;50.014;19.984;2023-04-25T17:01:32;10.87;65.63
67165;SHT31;54093;50.014;19.984;2023-04-25T17:10:53;10.83;65.81
67165;SHT31;54093;50.014;19.984;2023-04-25T17:20:14;10.76;66.10
67165;SHT31;54093;50.014;19.984;2023-04-25T17:29:35;10.70;67.28
67165;SHT31;54093;50.014;19.984;2023-04-25T17:38:56;10.62;65.97
67165;SHT31;54093;50.014;19.984;2023-04-25T17:48:17;10.42;67.07
67165;SHT31;54093;50.014;19.984;2023-04-25T17:57:38;10.29;66.61
67165;SHT31;54093;50.014;19.984;2023-04-25T18:06:59;10.18;66.85
67165;SHT31;54093;50.014;19.984;2023-04-25T18:16:20;9.98;68.47
67165;SHT31;54093;50.014;19.984;2023-04-25T18:25:41;9.85;67.95
67165;SHT31;54093;50.014;19.984;2023-04-25T18:35:03;9.71;66.83
67165;SHT31;54093;50.014;19.984;2023-04-25T18:44:24;9.70;68.46
67165;SHT31;54093;50.014;19.984;2023-04-25T18:53:45;9.57;69.29
67165;SHT31;54093;50.014;19.984;2023-04-25T19:03:06;9.46;69.16
67165;SHT31;54093;50.014;19.984;2023-04-25T19:12:28;9.36;69.69
67165;SHT31;54093;50.014;19.984;2023-04-25T19:21:49;9.22;69.89
67165;SHT31;54093;50.014;19.984;2023-04-25T19:31:10;9.14;69.06
67165;SHT31;54093;50.014;19.984;2023-04-25T19:40:32;9.12;68.46
67165;SHT31;54093;50.014;19.984;2023-04-25T19:49:53;9.19;68.41
67165;SHT31;54093;50.014;19.984;2023-04-25T19:59:14;9.16;67.99
67165;SHT31;54093;50.014;19.984;2023-04-25T20:08:35;9.05;68.20
67165;SHT31;54093;50.014;19.984;2023-04-25T20:17:56;8.92;68.79
67165;SHT31;54093;50.014;19.984;2023-04-25T20:27:17;8.87;69.12
67165;SHT31;54093;50.014;19.984;2023-04-25T20:36:38;8.78;68.18
67165;SHT31;54093;50.014;19.984;2023-04-25T20:45:59;8.74;69.22
67165;SHT31;54093;50.014;19.984;2023-04-25T20:55:20;8.70;68.57
67165;SHT31;54093;50.014;19.984;2023-04-25T21:04:42;8.63;68.80
67165;SHT31;54093;50.014;19.984;2023-04-25T21:14:06;8.63;69.67
67165;SHT31;54093;50.014;19.984;2023-04-25T21:23:27;8.58;68.90
67165;SHT31;54093;50.014;19.984;2023-04-25T21:32:48;8.57;68.91
67165;SHT31;54093;50.014;19.984;2023-04-25T21:42:12;8.53;69.07
67165;SHT31;54093;50.014;19.984;2023-04-25T21:51:33;8.49;69.53
67165;SHT31;54093;50.014;19.984;2023-04-25T22:00:54;8.47;69.11
67165;SHT31;54093;50.014;19.984;2023-04-25T22:10:16;8.44;70.08
67165;SHT31;54093;50.014;19.984;2023-04-25T22:19:37;8.50;69.25
67165;SHT31;54093;50.014;19.984;2023-04-25T22:28:58;8.47;69.72
67165;SHT31;54093;50.014;19.984;2023-04-25T22:38:19;8.47;70.25
67165;SHT31;54093;50.014;19.984;2023-04-25T22:47:40;8.44;70.42
67165;SHT31;54093;50.014;19.984;2023-04-25T22:57:05;8.43;70.56
67165;SHT31;54093;50.014;19.984;2023-04-25T23:06:26;8.40;70.80
67165;SHT31;54093;50.014;19.984;2023-04-25T23:15:47;8.41;70.89
67165;SHT31;54093;50.014;19.984;2023-04-25T23:25:08;8.40;70.95
67165;SHT31;54093;50.014;19.984;2023-04-25T23:34:30;8.41;70.94
67165;SHT31;54093;50.014;19.984;2023-04-25T23:43:51;8.40;70.91
67165;SHT31;54093;50.014;19.984;2023-04-25T23:53:12;8.37;70.67
